sensor_id;sensor_type;location;lat;lon;timestamp;temperature;humidity
5278;DHT22;2662;51.194;6.614;2022-08-16T00:01:56;23.10;99.90
5278;DHT22;2662;51.194;6.614;2022-08-16T00:04:23;23.10;99.90
5278;DHT22;2662;51.194;6.614;2022-08-16T00:06:50;23.10;99.90
5278;DHT22;2662;51.194;6.614;2022-08-16T00:09:17;23.20;99.90
5278;DHT22;2662;51.194;6.614;2022-08-16T00:11:45;23.20;99.90
5278;DHT22;2662;51.194;6.614;2022-08-16T00:14:18;23.20;99.90
5278;DHT22;2662;51.194;6.614;2022-08-16T00:16:46;23.20;99.90
5278;DHT22;2662;51.194;6.614;2022-08-16T00:19:15;23.20;99.90
5278;DHT22;2662;51.194;6.614;2022-08-16T00:21:42;23.30;99.90
5278;DHT22;2662;51.194;6.614;2022-08-16T00:24:09;23.20;99.90
5278;DHT22;2662;51.194;6.614;2022-08-16T00:26:36;23.20;99.90
5278;DHT22;2662;51.194;6.614;2022-08-16T00:29:03;23.20;99.90
5278;DHT22;2662;51.194;6.614;2022-08-16T00:31:32;23.20;99.90
5278;DHT22;2662;51.194;6.614;2022-08-16T00:33:59;23.30;99.90
5278;DHT22;2662;51.194;6.614;2022-08-16T00:36:26;23.20;99.90
5278;DHT22;2662;51.194;6.614;2022-08-16T00:38:53;23.20;99.90
5278;DHT22;2662;51.194;6.614;2022-08-16T00:41:21;23.20;99.90
5278;DHT22;2662;51.194;6.614;2022-08-16T00:43:48;23.10;99.90
5278;DHT22;2662;51.194;6.614;2022-08-16T00:46:22;23.00;99.90
5278;DHT22;2662;51.194;6.614;2022-08-16T00:48:51;23.00;99.90
5278;DHT22;2662;51.194;6.614;2022-08-16T00:51:19;23.00;99.90
5278;DHT22;2662;51.194;6.614;2022-08-16T00:53:47;22.90;99.90
5278;DHT22;2662;51.194;6.614;2022-08-16T00:56:19;22.80;99.90
5278;DHT22;2662;51.194;6.614;2022-08-16T00:58:47;22.80;99.90
5278;DHT22;2662;51.194;6.614;2022-08-16T01:01:15;22.70;99.90
5278;DHT22;2662;51.194;6.614;2022-08-16T01:03:46;22.70;99.90
5278;DHT22;2662;51.194;6.614;2022-08-16T01:06:16;22.70;99.90
5278;DHT22;2662;51.194;6.614;2022-08-16T01:08:47;22.60;99.90
5278;DHT22;2662;51.194;6.614;2022-08-16T01:11:14;22.50;99.90
5278;DHT22;2662;51.194;6.614;2022-08-16T01:13:42;22.50;99.90
5278;DHT22;2662;51.194;6.614;2022-08-16T01:16:15;22.50;99.90
5278;DHT22;2662;51.194;6.614;2022-08-16T01:18:44;22.40;99.90
5278;DHT22;2662;51.194;6.614;2022-08-16T01:21:30;22.40;99.90
5278;DHT22;2662;51.194;6.614;2022-08-16T01:24:12;22.30;99.90
5278;DHT22;2662;51.194;6.614;2022-08-16T01:26:42;22.20;99.90
5278;DHT22;2662;51.194;6.614;2022-08-16T01:29:14;22.20;99.90
5278;DHT22;2662;51.194;6.614;2022-08-16T01:31:42;22.10;99.90
5278;DHT22;2662;51.194;6.614;2022-08-16T01:34:09;22.10;99.90
5278;DHT22;2662;51.194;6.614;2022-08-16T01:36:37;22.00;99.90
5278;DHT22;2662;51.194;6.614;2022-08-16T01:39:11;21.90;99.90
5278;DHT22;2662;51.194;6.614;2022-08-16T01:41:38;21.90;99.90
5278;DHT22;2662;51.194;6.614;2022-08-16T01:44:05;21.80;99.90
5278;DHT22;2662;51.194;6.614;2022-08-16T01:46:35;21.70;99.90
5278;DHT22;2662;51.194;6.614;2022-08-16T01:49:05;21.60;99.90
5278;DHT22;2662;51.194;6.614;2022-08-16T01:51:32;21.50;99.90
5278;DHT22;2662;51.194;6.614;2022-08-16T01:53:59;21.40;99.90
5278;DHT22;2662;51.194;6.614;2022-08-16T01:56:28;21.30;99.90
5278;DHT22;2662;51.194;6.614;2022-08-16T01:58:57;21.10;99.90
5278;DHT22;2662;51.194;6.614;2022-08-16T02:01:24;21.00;99.90
5278;DHT22;2662;51.194;6.614;2022-08-16T02:03:51;21.00;99.90
5278;DHT22;2662;51.194;6.614;2022-08-16T02:06:18;20.90;99.90
5278;DHT22;2662;51.194;6.614;2022-08-16T02:08:45;20.80;99.90
5278;DHT22;2662;51.194;6.614;2022-08-16T02:11:13;20.80;99.90
5278;DHT22;2662;51.194;6.614;2022-08-16T02:13:42;20.80;99.90
5278;DHT22;2662;51.194;6.614;2022-08-16T02:16:09;20.70;99.90
5278;DHT22;2662;51.194;6.614;2022-08-16T02:18:37;20.70;99.90
5278;DHT22;2662;51.194;6.614;2022-08-16T02:21:05;20.70;99.90
5278;DHT22;2662;51.194;6.614;2022-08-16T02:23:32;20.50;99.90
5278;DHT22;2662;51.194;6.614;2022-08-16T02:25:59;20.50;99.90
5278;DHT22;2662;51.194;6.614;2022-08-16T02:28:26;20.50;99.90
5278;DHT22;2662;51.194;6.614;2022-08-16T02:30:57;20.40;99.90
5278;DHT22;2662;51.194;6.614;2022-08-16T02:33:25;20.30;99.90
5278;DHT22;2662;51.194;6.614;2022-08-16T02:35:52;20.30;99.90
5278;DHT22;2662;51.194;6.614;2022-08-16T02:38:19;20.20;99.90
5278;DHT22;2662;51.194;6.614;2022-08-16T02:40:46;20.20;99.90
5278;DHT22;2662;51.194;6.614;2022-08-16T02:43:12;20.20;99.90
5278;DHT22;2662;51.194;6.614;2022-08-16T02:45:39;20.10;99.90
5278;DHT22;2662;51.194;6.614;2022-08-16T02:48:07;20.10;99.90
5278;DHT22;2662;51.194;6.614;2022-08-16T02:50:35;20.10;99.90
5278;DHT22;2662;51.194;6.614;2022-08-16T02:53:01;20.00;99.90
5278;DHT22;2662;51.194;6.614;2022-08-16T02:55:28;19.90;99.90
5278;DHT22;2662;51.194;6.614;2022-08-16T02:57:55;19.90;99.90
5278;DHT22;2662;51.194;6.614;2022-08-16T03:00:22;19.90;99.90
5278;DHT22;2662;51.194;6.614;2022-08-16T03:02:49;19.80;99.90
5278;DHT22;2662;51.194;6.614;2022-08-16T03:05:17;19.80;99.90
5278;DHT22;2662;51.194;6.614;2022-08-16T03:07:44;19.70;99.90
5278;DHT22;2662;51.194;6.614;2022-08-16T03:10:11;19.70;99.90
5278;DHT22;2662;51.194;6.614;2022-08-16T03:12:39;19.70;99.90
5278;DHT22;2662;51.194;6.614;2022-08-16T03:15:10;19.60;99.90
5278;DHT22;2662;51.194;6.614;2022-08-16T03:17:37;19.50;99.90
5278;DHT22;2662;51.194;6.614;2022-08-16T03:20:04;19.50;99.90
5278;DHT22;2662;51.194;6.614;2022-08-16T03:22:34;19.40;99.90
5278;DHT22;2662;51.194;6.614;2022-08-16T03:25:02;19.30;99.90
5278;DHT22;2662;51.194;6.614;2022-08-16T03:27:31;19.30;99.90
5278;DHT22;2662;51.194;6.614;2022-08-16T03:30:00;19.30;99.90
5278;DHT22;2662;51.194;6.614;2022-08-16T03:32:27;19.30;99.90
5278;DHT22;2662;51.194;6.614;2022-08-16T03:34:54;19.30;99.90
5278;DHT22;2662;51.194;6.614;2022-08-16T03:37:21;19.30;99.90
5278;DHT22;2662;51.194;6.614;2022-08-16T03:39:49;19.30;99.90
5278;DHT22;2662;51.194;6.614;2022-08-16T03:42:15;19.30;99.90
5278;DHT22;2662;51.194;6.614;2022-08-16T03:44:42;19.20;99.90
5278;DHT22;2662;51.194;6.614;2022-08-16T03:47:09;19.20;99.90
5278;DHT22;2662;51.194;6.614;2022-08-16T03:49:36;19.20;99.90
5278;DHT22;2662;51.194;6.614;2022-08-16T03:52:03;19.20;99.90
5278;DHT22;2662;51.194;6.614;2022-08-16T03:54:30;19.20;99.90
5278;DHT22;2662;51.194;6.614;2022-08-16T03:56:58;19.20;99.90
5278;DHT22;2662;51.194;6.614;2022-08-16T03:59:25;19.20;99.90
5278;DHT22;2662;51.194;6.614;2022-08-16T04:01:52;19.20;99.90
5278;DHT22;2662;51.194;6.614;2022-08-16T04:04:18;19.20;99.90
5278;DHT22;2662;51.194;6.614;2022-08-16T04:06:45;19.10;99.90
5278;DHT22;2662;51.194;6.614;2022-08-16T04:09:12;19.10;99.90
5278;DHT22;2662;51.194;6.614;2022-08-16T04:11:39;19.10;99.90
5278;DHT22;2662;51.194;6.614;2022-08-16T04:14:07;19.10;99.90
5278;DHT22;2662;51.194;6.614;2022-08-16T04:16:34;19.20;99.90
5278;DHT22;2662;51.194;6.614;2022-08-16T04:19:00;19.10;99.90
5278;DHT22;2662;51.194;6.614;2022-08-16T04:21:28;19.10;99.90
5278;DHT22;2662;51.194;6.614;2022-08-16T04:23:55;19.10;99.90
5278;DHT22;2662;51.194;6.614;2022-08-16T04:26:22;19.10;99.90
5278;DHT22;2662;51.194;6.614;2022-08-16T04:28:49;19.10;99.90
5278;DHT22;2662;51.194;6.614;2022-08-16T04:31:17;19.10;99.90
5278;DHT22;2662;51.194;6.614;2022-08-16T04:33:44;19.10;99.90
5278;DHT22;2662;51.194;6.614;2022-08-16T04:36:10;19.20;99.90
5278;DHT22;2662;51.194;6.614;2022-08-16T04:38:37;19.20;99.90
5278;DHT22;2662;51.194;6.614;2022-08-16T04:41:04;19.20;99.90
5278;DHT22;2662;51.194;6.614;2022-08-16T04:43:31;19.30;99.90
5278;DHT22;2662;51.194;6.614;2022-08-16T04:46:02;19.30;99.90
5278;DHT22;2662;51.194;6.614;2022-08-16T04:48:30;19.40;99.90
5278;DHT22;2662;51.194;6.614;2022-08-16T04:50:57;19.40;99.90
5278;DHT22;2662;51.194;6.614;2022-08-16T04:53:24;19.50;99.90
5278;DHT22;2662;51.194;6.614;2022-08-16T04:55:53;19.50;99.90
5278;DHT22;2662;51.194;6.614;2022-08-16T04:58:19;19.60;99.90
5278;DHT22;2662;51.194;6.614;2022-08-16T05:00:46;19.60;99.90
5278;DHT22;2662;51.194;6.614;2022-08-16T05:03:13;19.70;99.90
5278;DHT22;2662;51.194;6.614;2022-08-16T05:05:41;19.70;99.90
5278;DHT22;2662;51.194;6.614;2022-08-16T05:08:09;19.80;99.90
5278;DHT22;2662;51.194;6.614;2022-08-16T05:10:36;19.90;99.90
5278;DHT22;2662;51.194;6.614;2022-08-16T05:13:04;20.00;99.90
5278;DHT22;2662;51.194;6.614;2022-08-16T05:15:31;20.10;99.90
5278;DHT22;2662;51.194;6.614;2022-08-16T05:17:58;20.20;99.90
5278;DHT22;2662;51.194;6.614;2022-08-16T05:20:25;20.20;99.90
5278;DHT22;2662;51.194;6.614;2022-08-16T05:22:53;20.30;99.90
5278;DHT22;2662;51.194;6.614;2022-08-16T05:25:21;20.30;99.90
5278;DHT22;2662;51.194;6.614;2022-08-16T05:27:47;20.50;99.90
5278;DHT22;2662;51.194;6.614;2022-08-16T05:30:15;20.60;99.90
5278;DHT22;2662;51.194;6.614;2022-08-16T05:32:41;20.70;99.90
5278;DHT22;2662;51.194;6.614;2022-08-16T05:35:09;20.60;99.90
5278;DHT22;2662;51.194;6.614;2022-08-16T05:37:38;20.70;99.90
5278;DHT22;2662;51.194;6.614;2022-08-16T05:40:08;20.90;99.90
5278;DHT22;2662;51.194;6.614;2022-08-16T05:42:36;20.80;99.90
5278;DHT22;2662;51.194;6.614;2022-08-16T05:45:04;20.90;99.90
5278;DHT22;2662;51.194;6.614;2022-08-16T05:47:31;21.00;99.90
5278;DHT22;2662;51.194;6.614;2022-08-16T05:49:58;21.10;99.90
5278;DHT22;2662;51.194;6.614;2022-08-16T05:52:24;21.50;99.90
5278;DHT22;2662;51.194;6.614;2022-08-16T05:54:51;22.50;99.90
5278;DHT22;2662;51.194;6.614;2022-08-16T05:57:20;24.10;99.90
5278;DHT22;2662;51.194;6.614;2022-08-16T05:59:47;25.70;99.90
5278;DHT22;2662;51.194;6.614;2022-08-16T06:02:14;27.10;99.90
5278;DHT22;2662;51.194;6.614;2022-08-16T06:04:41;28.50;99.90
5278;DHT22;2662;51.194;6.614;2022-08-16T06:07:08;29.60;99.90
5278;DHT22;2662;51.194;6.614;2022-08-16T06:09:35;30.60;99.90
5278;DHT22;2662;51.194;6.614;2022-08-16T06:12:02;31.20;99.90
5278;DHT22;2662;51.194;6.614;2022-08-16T06:14:31;31.90;99.90
5278;DHT22;2662;51.194;6.614;2022-08-16T06:16:58;32.90;99.90
5278;DHT22;2662;51.194;6.614;2022-08-16T06:19:24;33.60;99.90
5278;DHT22;2662;51.194;6.614;2022-08-16T06:21:51;33.80;98.90
5278;DHT22;2662;51.194;6.614;2022-08-16T06:24:18;34.20;97.90
5278;DHT22;2662;51.194;6.614;2022-08-16T06:26:45;34.50;96.90
5278;DHT22;2662;51.194;6.614;2022-08-16T06:29:11;34.70;96.00
5278;DHT22;2662;51.194;6.614;2022-08-16T06:31:40;34.30;95.60
5278;DHT22;2662;51.194;6.614;2022-08-16T06:34:06;34.00;95.10
5278;DHT22;2662;51.194;6.614;2022-08-16T06:36:33;33.80;95.20
5278;DHT22;2662;51.194;6.614;2022-08-16T06:39:00;34.00;95.30
5278;DHT22;2662;51.194;6.614;2022-08-16T06:41:27;34.60;94.90
5278;DHT22;2662;51.194;6.614;2022-08-16T06:43:53;35.60;94.10
5278;DHT22;2662;51.194;6.614;2022-08-16T06:46:23;36.30;92.90
5278;DHT22;2662;51.194;6.614;2022-08-16T06:48:51;36.20;91.90
5278;DHT22;2662;51.194;6.614;2022-08-16T06:51:19;35.70;91.60
5278;DHT22;2662;51.194;6.614;2022-08-16T06:53:45;36.40;91.30
5278;DHT22;2662;51.194;6.614;2022-08-16T06:56:12;37.50;90.30
5278;DHT22;2662;51.194;6.614;2022-08-16T06:58:39;38.60;88.30
5278;DHT22;2662;51.194;6.614;2022-08-16T07:01:06;39.20;85.40
5278;DHT22;2662;51.194;6.614;2022-08-16T07:03:33;39.40;82.60
5278;DHT22;2662;51.194;6.614;2022-08-16T07:06:02;39.60;81.80
5278;DHT22;2662;51.194;6.614;2022-08-16T07:08:29;40.00;80.10
5278;DHT22;2662;51.194;6.614;2022-08-16T07:10:56;40.40;79.40
5278;DHT22;2662;51.194;6.614;2022-08-16T07:13:24;40.60;77.10
5278;DHT22;2662;51.194;6.614;2022-08-16T07:15:51;40.80;75.50
5278;DHT22;2662;51.194;6.614;2022-08-16T07:18:18;40.60;74.10
5278;DHT22;2662;51.194;6.614;2022-08-16T07:20:46;40.60;73.90
5278;DHT22;2662;51.194;6.614;2022-08-16T07:23:15;41.10;73.20
5278;DHT22;2662;51.194;6.614;2022-08-16T07:25:41;41.50;72.00
5278;DHT22;2662;51.194;6.614;2022-08-16T07:28:11;42.00;70.70
5278;DHT22;2662;51.194;6.614;2022-08-16T07:30:39;42.60;69.40
5278;DHT22;2662;51.194;6.614;2022-08-16T07:33:06;42.80;67.90
5278;DHT22;2662;51.194;6.614;2022-08-16T07:35:35;42.50;67.20
5278;DHT22;2662;51.194;6.614;2022-08-16T07:38:02;42.50;66.70
5278;DHT22;2662;51.194;6.614;2022-08-16T07:40:30;42.90;66.30
5278;DHT22;2662;51.194;6.614;2022-08-16T07:42:57;43.10;65.00
5278;DHT22;2662;51.194;6.614;2022-08-16T07:45:24;43.20;64.60
5278;DHT22;2662;51.194;6.614;2022-08-16T07:47:51;42.80;64.10
5278;DHT22;2662;51.194;6.614;2022-08-16T07:50:18;42.50;63.90
5278;DHT22;2662;51.194;6.614;2022-08-16T07:52:45;42.30;64.10
5278;DHT22;2662;51.194;6.614;2022-08-16T07:55:14;42.60;64.00
5278;DHT22;2662;51.194;6.614;2022-08-16T07:57:42;42.80;63.60
5278;DHT22;2662;51.194;6.614;2022-08-16T08:00:11;42.60;63.20
5278;DHT22;2662;51.194;6.614;2022-08-16T08:02:38;42.60;63.30
5278;DHT22;2662;51.194;6.614;2022-08-16T08:05:06;42.60;62.60
5278;DHT22;2662;51.194;6.614;2022-08-16T08:07:33;42.30;62.50
5278;DHT22;2662;51.194;6.614;2022-08-16T08:10:00;42.10;62.70
5278;DHT22;2662;51.194;6.614;2022-08-16T08:12:27;42.20;62.60
5278;DHT22;2662;51.194;6.614;2022-08-16T08:14:56;42.60;62.30
5278;DHT22;2662;51.194;6.614;2022-08-16T08:17:23;43.20;62.30
5278;DHT22;2662;51.194;6.614;2022-08-16T08:19:49;43.40;61.20
5278;DHT22;2662;51.194;6.614;2022-08-16T08:22:16;43.40;60.80
5278;DHT22;2662;51.194;6.614;2022-08-16T08:24:43;43.30;60.80
5278;DHT22;2662;51.194;6.614;2022-08-16T08:27:11;43.40;60.60
5278;DHT22;2662;51.194;6.614;2022-08-16T08:29:39;43.40;60.40
5278;DHT22;2662;51.194;6.614;2022-08-16T08:32:09;43.70;60.30
5278;DHT22;2662;51.194;6.614;2022-08-16T08:34:35;43.80;59.70
5278;DHT22;2662;51.194;6.614;2022-08-16T08:37:02;43.90;59.30
5278;DHT22;2662;51.194;6.614;2022-08-16T08:39:30;44.20;59.00
5278;DHT22;2662;51.194;6.614;2022-08-16T08:41:56;44.20;59.20
5278;DHT22;2662;51.194;6.614;2022-08-16T08:44:23;44.20;58.40
5278;DHT22;2662;51.194;6.614;2022-08-16T08:46:50;44.20;58.50
5278;DHT22;2662;51.194;6.614;2022-08-16T08:49:23;44.20;58.10
5278;DHT22;2662;51.194;6.614;2022-08-16T08:51:50;43.90;57.90
5278;DHT22;2662;51.194;6.614;2022-08-16T08:54:16;43.50;58.40
5278;DHT22;2662;51.194;6.614;2022-08-16T08:56:43;43.60;58.10
5278;DHT22;2662;51.194;6.614;2022-08-16T08:59:11;43.40;58.10
5278;DHT22;2662;51.194;6.614;2022-08-16T09:01:39;43.10;58.50
5278;DHT22;2662;51.194;6.614;2022-08-16T09:04:06;43.20;58.50
5278;DHT22;2662;51.194;6.614;2022-08-16T09:06:35;43.20;58.40
5278;DHT22;2662;51.194;6.614;2022-08-16T09:09:02;43.40;58.50
5278;DHT22;2662;51.194;6.614;2022-08-16T09:11:29;43.00;58.20
5278;DHT22;2662;51.194;6.614;2022-08-16T09:13:56;42.80;58.00
5278;DHT22;2662;51.194;6.614;2022-08-16T09:16:23;42.70;58.10
5278;DHT22;2662;51.194;6.614;2022-08-16T09:18:50;42.70;58.30
5278;DHT22;2662;51.194;6.614;2022-08-16T09:21:18;42.40;58.30
5278;DHT22;2662;51.194;6.614;2022-08-16T09:23:47;42.30;58.30
5278;DHT22;2662;51.194;6.614;2022-08-16T09:26:14;42.30;58.00
5278;DHT22;2662;51.194;6.614;2022-08-16T09:28:42;42.20;58.40
5278;DHT22;2662;51.194;6.614;2022-08-16T09:31:09;42.10;58.10
5278;DHT22;2662;51.194;6.614;2022-08-16T09:33:37;42.20;58.60
5278;DHT22;2662;51.194;6.614;2022-08-16T09:36:04;42.40;58.40
5278;DHT22;2662;51.194;6.614;2022-08-16T09:38:32;42.40;58.00
5278;DHT22;2662;51.194;6.614;2022-08-16T09:41:02;42.50;57.10
5278;DHT22;2662;51.194;6.614;2022-08-16T09:43:31;42.20;57.70
5278;DHT22;2662;51.194;6.614;2022-08-16T09:45:58;41.80;57.80
5278;DHT22;2662;51.194;6.614;2022-08-16T09:48:25;41.40;58.00
5278;DHT22;2662;51.194;6.614;2022-08-16T09:50:53;41.60;57.80
5278;DHT22;2662;51.194;6.614;2022-08-16T09:53:21;41.80;57.80
5278;DHT22;2662;51.194;6.614;2022-08-16T09:55:50;41.70;58.00
5278;DHT22;2662;51.194;6.614;2022-08-16T09:58:20;41.50;57.80
5278;DHT22;2662;51.194;6.614;2022-08-16T10:00:48;41.40;58.00
5278;DHT22;2662;51.194;6.614;2022-08-16T10:03:15;41.60;57.60
5278;DHT22;2662;51.194;6.614;2022-08-16T10:05:42;41.40;57.30
5278;DHT22;2662;51.194;6.614;2022-08-16T10:08:09;41.30;58.80
5278;DHT22;2662;51.194;6.614;2022-08-16T10:10:36;41.60;58.00
5278;DHT22;2662;51.194;6.614;2022-08-16T10:13:06;41.30;57.80
5278;DHT22;2662;51.194;6.614;2022-08-16T10:15:42;41.40;57.20
5278;DHT22;2662;51.194;6.614;2022-08-16T10:18:10;41.00;57.30
5278;DHT22;2662;51.194;6.614;2022-08-16T10:20:39;40.40;57.40
5278;DHT22;2662;51.194;6.614;2022-08-16T10:23:08;40.10;57.20
5278;DHT22;2662;51.194;6.614;2022-08-16T10:25:37;39.70;58.50
5278;DHT22;2662;51.194;6.614;2022-08-16T10:28:04;39.90;58.90
5278;DHT22;2662;51.194;6.614;2022-08-16T10:30:31;39.60;57.90
5278;DHT22;2662;51.194;6.614;2022-08-16T10:32:59;39.50;58.30
5278;DHT22;2662;51.194;6.614;2022-08-16T10:35:26;39.80;58.70
5278;DHT22;2662;51.194;6.614;2022-08-16T10:37:52;40.00;57.90
5278;DHT22;2662;51.194;6.614;2022-08-16T10:40:20;40.00;57.80
5278;DHT22;2662;51.194;6.614;2022-08-16T10:42:46;39.70;57.30
5278;DHT22;2662;51.194;6.614;2022-08-16T10:45:15;39.30;58.30
5278;DHT22;2662;51.194;6.614;2022-08-16T10:47:42;38.60;57.10
5278;DHT22;2662;51.194;6.614;2022-08-16T10:50:10;38.00;58.70
5278;DHT22;2662;51.194;6.614;2022-08-16T10:52:37;37.20;59.60
5278;DHT22;2662;51.194;6.614;2022-08-16T10:55:05;36.70;60.40
5278;DHT22;2662;51.194;6.614;2022-08-16T10:57:34;36.40;61.30
5278;DHT22;2662;51.194;6.614;2022-08-16T11:00:04;36.30;60.90
5278;DHT22;2662;51.194;6.614;2022-08-16T11:02:33;36.00;63.00
5278;DHT22;2662;51.194;6.614;2022-08-16T11:05:01;35.60;63.00
5278;DHT22;2662;51.194;6.614;2022-08-16T11:07:30;35.40;62.40
5278;DHT22;2662;51.194;6.614;2022-08-16T11:09:56;35.00;62.80
5278;DHT22;2662;51.194;6.614;2022-08-16T11:12:26;34.40;63.10
5278;DHT22;2662;51.194;6.614;2022-08-16T11:14:53;34.20;63.10
5278;DHT22;2662;51.194;6.614;2022-08-16T11:17:20;33.90;64.00
5278;DHT22;2662;51.194;6.614;2022-08-16T11:19:47;33.80;63.90
5278;DHT22;2662;51.194;6.614;2022-08-16T11:22:14;33.70;63.60
5278;DHT22;2662;51.194;6.614;2022-08-16T11:24:42;33.50;64.50
5278;DHT22;2662;51.194;6.614;2022-08-16T11:27:11;33.50;64.00
5278;DHT22;2662;51.194;6.614;2022-08-16T11:29:38;33.60;63.70
5278;DHT22;2662;51.194;6.614;2022-08-16T11:32:05;33.50;64.60
5278;DHT22;2662;51.194;6.614;2022-08-16T11:34:32;33.10;65.40
5278;DHT22;2662;51.194;6.614;2022-08-16T11:36:59;33.30;66.10
5278;DHT22;2662;51.194;6.614;2022-08-16T11:39:27;33.60;66.40
5278;DHT22;2662;51.194;6.614;2022-08-16T11:41:56;33.90;65.30
5278;DHT22;2662;51.194;6.614;2022-08-16T11:44:24;34.20;64.60
5278;DHT22;2662;51.194;6.614;2022-08-16T11:46:51;34.40;64.40
5278;DHT22;2662;51.194;6.614;2022-08-16T11:49:17;34.40;63.70
5278;DHT22;2662;51.194;6.614;2022-08-16T11:51:44;34.30;63.80
5278;DHT22;2662;51.194;6.614;2022-08-16T11:54:12;34.20;62.50
5278;DHT22;2662;51.194;6.614;2022-08-16T11:56:39;34.30;63.20
5278;DHT22;2662;51.194;6.614;2022-08-16T11:59:07;34.40;62.00
5278;DHT22;2662;51.194;6.614;2022-08-16T12:01:34;34.40;62.90
5278;DHT22;2662;51.194;6.614;2022-08-16T12:04:02;34.60;63.30
5278;DHT22;2662;51.194;6.614;2022-08-16T12:06:28;34.90;62.50
5278;DHT22;2662;51.194;6.614;2022-08-16T12:08:57;35.00;62.10
5278;DHT22;2662;51.194;6.614;2022-08-16T12:11:27;35.10;60.80
5278;DHT22;2662;51.194;6.614;2022-08-16T12:13:54;35.00;61.00
5278;DHT22;2662;51.194;6.614;2022-08-16T12:16:22;34.70;61.60
5278;DHT22;2662;51.194;6.614;2022-08-16T12:18:49;34.40;62.10
5278;DHT22;2662;51.194;6.614;2022-08-16T12:21:16;34.10;62.20
5278;DHT22;2662;51.194;6.614;2022-08-16T12:23:43;33.80;62.30
5278;DHT22;2662;51.194;6.614;2022-08-16T12:26:10;33.60;62.50
5278;DHT22;2662;51.194;6.614;2022-08-16T12:28:37;33.40;62.20
5278;DHT22;2662;51.194;6.614;2022-08-16T12:31:04;33.20;62.70
5278;DHT22;2662;51.194;6.614;2022-08-16T12:33:32;33.00;63.60
5278;DHT22;2662;51.194;6.614;2022-08-16T12:35:58;33.00;64.30
5278;DHT22;2662;51.194;6.614;2022-08-16T12:38:26;33.00;64.10
5278;DHT22;2662;51.194;6.614;2022-08-16T12:40:54;33.00;65.00
5278;DHT22;2662;51.194;6.614;2022-08-16T12:43:22;33.20;66.80
5278;DHT22;2662;51.194;6.614;2022-08-16T12:45:51;33.20;67.60
5278;DHT22;2662;51.194;6.614;2022-08-16T12:48:21;33.30;67.60
5278;DHT22;2662;51.194;6.614;2022-08-16T12:51:09;33.20;66.30
5278;DHT22;2662;51.194;6.614;2022-08-16T12:53:37;33.30;66.50
5278;DHT22;2662;51.194;6.614;2022-08-16T12:56:05;33.50;65.10
5278;DHT22;2662;51.194;6.614;2022-08-16T12:58:32;33.90;65.70
5278;DHT22;2662;51.194;6.614;2022-08-16T13:00:59;34.20;65.30
5278;DHT22;2662;51.194;6.614;2022-08-16T13:03:26;34.30;64.50
5278;DHT22;2662;51.194;6.614;2022-08-16T13:05:53;34.70;63.20
5278;DHT22;2662;51.194;6.614;2022-08-16T13:08:22;34.90;62.20
5278;DHT22;2662;51.194;6.614;2022-08-16T13:10:50;34.80;60.90
5278;DHT22;2662;51.194;6.614;2022-08-16T13:13:21;34.80;60.30
5278;DHT22;2662;51.194;6.614;2022-08-16T13:15:51;34.80;61.50
5278;DHT22;2662;51.194;6.614;2022-08-16T13:18:19;34.80;60.70
5278;DHT22;2662;51.194;6.614;2022-08-16T13:20:46;34.80;60.80
5278;DHT22;2662;51.194;6.614;2022-08-16T13:23:14;34.80;61.50
5278;DHT22;2662;51.194;6.614;2022-08-16T13:25:44;34.70;60.30
5278;DHT22;2662;51.194;6.614;2022-08-16T13:28:12;34.70;61.00
5278;DHT22;2662;51.194;6.614;2022-08-16T13:30:41;34.90;61.10
5278;DHT22;2662;51.194;6.614;2022-08-16T13:33:09;34.90;60.80
5278;DHT22;2662;51.194;6.614;2022-08-16T13:35:36;34.70;59.60
5278;DHT22;2662;51.194;6.614;2022-08-16T13:38:03;34.50;59.50
5278;DHT22;2662;51.194;6.614;2022-08-16T13:40:30;34.30;60.80
5278;DHT22;2662;51.194;6.614;2022-08-16T13:42:59;34.30;60.50
5278;DHT22;2662;51.194;6.614;2022-08-16T13:45:25;34.30;59.60
5278;DHT22;2662;51.194;6.614;2022-08-16T13:47:52;34.30;60.60
5278;DHT22;2662;51.194;6.614;2022-08-16T13:50:20;34.20;60.40
5278;DHT22;2662;51.194;6.614;2022-08-16T13:52:47;34.10;60.40
5278;DHT22;2662;51.194;6.614;2022-08-16T13:55:14;33.80;60.30
5278;DHT22;2662;51.194;6.614;2022-08-16T13:57:41;33.60;60.90
5278;DHT22;2662;51.194;6.614;2022-08-16T14:00:10;33.50;61.40
5278;DHT22;2662;51.194;6.614;2022-08-16T14:02:37;33.40;61.10
5278;DHT22;2662;51.194;6.614;2022-08-16T14:05:05;33.40;61.20
5278;DHT22;2662;51.194;6.614;2022-08-16T14:07:32;33.20;61.10
5278;DHT22;2662;51.194;6.614;2022-08-16T14:09:59;33.10;61.60
5278;DHT22;2662;51.194;6.614;2022-08-16T14:12:29;33.20;62.00
5278;DHT22;2662;51.194;6.614;2022-08-16T14:14:56;33.30;62.40
5278;DHT22;2662;51.194;6.614;2022-08-16T14:17:25;33.40;61.60
5278;DHT22;2662;51.194;6.614;2022-08-16T14:19:53;33.70;61.60
5278;DHT22;2662;51.194;6.614;2022-08-16T14:22:21;33.90;60.30
5278;DHT22;2662;51.194;6.614;2022-08-16T14:24:50;34.20;61.10
5278;DHT22;2662;51.194;6.614;2022-08-16T14:27:18;34.20;59.50
5278;DHT22;2662;51.194;6.614;2022-08-16T14:29:46;33.90;59.50
5278;DHT22;2662;51.194;6.614;2022-08-16T14:32:13;33.80;60.00
5278;DHT22;2662;51.194;6.614;2022-08-16T14:34:41;33.90;60.00
5278;DHT22;2662;51.194;6.614;2022-08-16T14:37:08;33.90;59.50
5278;DHT22;2662;51.194;6.614;2022-08-16T14:39:35;33.70;60.10
5278;DHT22;2662;51.194;6.614;2022-08-16T14:42:04;33.60;60.50
5278;DHT22;2662;51.194;6.614;2022-08-16T14:44:31;33.80;60.60
5278;DHT22;2662;51.194;6.614;2022-08-16T14:46:58;33.70;60.20
5278;DHT22;2662;51.194;6.614;2022-08-16T14:49:25;33.70;60.00
5278;DHT22;2662;51.194;6.614;2022-08-16T14:51:53;33.80;60.70
5278;DHT22;2662;51.194;6.614;2022-08-16T14:54:20;33.90;60.10
5278;DHT22;2662;51.194;6.614;2022-08-16T14:56:47;34.10;59.90
5278;DHT22;2662;51.194;6.614;2022-08-16T14:59:14;34.30;59.70
5278;DHT22;2662;51.194;6.614;2022-08-16T15:01:41;34.50;59.00
5278;DHT22;2662;51.194;6.614;2022-08-16T15:04:10;34.40;59.00
5278;DHT22;2662;51.194;6.614;2022-08-16T15:06:37;34.60;59.10
5278;DHT22;2662;51.194;6.614;2022-08-16T15:09:05;34.90;58.70
5278;DHT22;2662;51.194;6.614;2022-08-16T15:11:32;34.90;58.90
5278;DHT22;2662;51.194;6.614;2022-08-16T15:13:59;34.90;58.50
5278;DHT22;2662;51.194;6.614;2022-08-16T15:16:25;34.70;58.20
5278;DHT22;2662;51.194;6.614;2022-08-16T15:18:52;34.60;58.00
5278;DHT22;2662;51.194;6.614;2022-08-16T15:21:19;34.50;58.40
5278;DHT22;2662;51.194;6.614;2022-08-16T15:23:46;34.30;58.00
5278;DHT22;2662;51.194;6.614;2022-08-16T15:26:14;34.30;58.10
5278;DHT22;2662;51.194;6.614;2022-08-16T15:28:41;34.20;57.80
5278;DHT22;2662;51.194;6.614;2022-08-16T15:31:09;34.30;58.20
5278;DHT22;2662;51.194;6.614;2022-08-16T15:33:40;34.30;57.80
5278;DHT22;2662;51.194;6.614;2022-08-16T15:36:07;34.20;57.80
5278;DHT22;2662;51.194;6.614;2022-08-16T15:38:34;34.10;58.40
5278;DHT22;2662;51.194;6.614;2022-08-16T15:41:01;33.80;58.80
5278;DHT22;2662;51.194;6.614;2022-08-16T15:43:29;33.60;59.30
5278;DHT22;2662;51.194;6.614;2022-08-16T15:45:56;33.60;59.50
5278;DHT22;2662;51.194;6.614;2022-08-16T15:48:40;33.70;59.80
5278;DHT22;2662;51.194;6.614;2022-08-16T15:51:07;33.80;59.80
5278;DHT22;2662;51.194;6.614;2022-08-16T15:53:34;33.80;59.60
5278;DHT22;2662;51.194;6.614;2022-08-16T15:56:02;33.50;59.80
5278;DHT22;2662;51.194;6.614;2022-08-16T15:58:31;33.60;59.50
5278;DHT22;2662;51.194;6.614;2022-08-16T16:00:59;33.50;59.20
5278;DHT22;2662;51.194;6.614;2022-08-16T16:03:27;33.50;59.50
5278;DHT22;2662;51.194;6.614;2022-08-16T16:05:55;33.50;59.40